createdAt,value
2023-04-08T00:01:57.885Z,38.66
2023-04-08T00:04:25.214Z,38.59
2023-04-08T00:06:52.484Z,38.81
2023-04-08T00:09:19.543Z,38.62
2023-04-08T00:11:46.505Z,39.17
2023-04-08T00:14:13.456Z,38.68
2023-04-08T00:16:40.539Z,39.03
2023-04-08T00:19:07.677Z,39.02
2023-04-08T00:21:34.653Z,39.14
2023-04-08T00:24:01.545Z,39.20
2023-04-08T00:26:28.651Z,39.32
2023-04-08T00:28:55.817Z,39.04
2023-04-08T00:31:23.305Z,39.46
2023-04-08T00:33:51.233Z,39.38
2023-04-08T00:36:19.283Z,39.71
2023-04-08T00:38:46.525Z,39.52
2023-04-08T00:41:13.619Z,39.95
2023-04-08T00:43:41.107Z,40.12
2023-04-08T00:46:09.371Z,39.72
2023-04-08T00:48:36.473Z,40.07
2023-04-08T00:51:04.002Z,40.20
2023-04-08T00:53:31.701Z,40.34
2023-04-08T00:56:00.178Z,40.33
2023-04-08T00:58:29.301Z,40.02
2023-04-08T01:01:20.481Z,40.90
2023-04-08T01:04:02.231Z,41.34
2023-04-08T01:06:51.689Z,41.06
2023-04-08T01:09:21.449Z,40.53
2023-04-08T01:11:51.957Z,40.84
2023-04-08T01:14:23.864Z,40.62
2023-04-08T01:16:53.874Z,40.95
2023-04-08T01:19:35.428Z,41.64
2023-04-08T01:22:23.362Z,41.03
2023-04-08T01:24:57.711Z,40.94
2023-04-08T01:27:27.200Z,41.09
2023-04-08T01:29:56.008Z,41.05
2023-04-08T01:32:24.027Z,40.98
2023-04-08T01:34:52.589Z,40.97
2023-04-08T01:37:21.174Z,41.20
2023-04-08T01:39:49.765Z,41.26
2023-04-08T01:42:17.033Z,41.42
2023-04-08T01:44:45.628Z,41.27
2023-04-08T01:47:13.460Z,41.45
2023-04-08T01:49:41.600Z,41.71
2023-04-08T01:52:10.257Z,41.78
2023-04-08T01:54:38.243Z,41.84
2023-04-08T01:57:09.083Z,41.99
2023-04-08T01:59:39.165Z,41.86
2023-04-08T02:02:09.289Z,41.78
2023-04-08T02:04:37.043Z,41.84
2023-04-08T02:07:06.166Z,42.13
2023-04-08T02:09:33.141Z,42.16
2023-04-08T02:12:00.191Z,42.25
2023-04-08T02:14:28.408Z,42.22
2023-04-08T02:17:09.503Z,43.21
2023-04-08T02:19:44.535Z,42.96
2023-04-08T02:22:24.509Z,43.13
2023-04-08T02:24:52.449Z,42.54
2023-04-08T02:27:21.281Z,42.72
2023-04-08T02:29:49.922Z,42.94
2023-04-08T02:32:17.847Z,42.83
2023-04-08T02:34:46.761Z,42.93
2023-04-08T02:37:13.828Z,43.10
2023-04-08T02:39:40.784Z,42.92
2023-04-08T02:42:11.741Z,43.09
2023-04-08T02:44:39.135Z,43.08
2023-04-08T02:47:06.335Z,43.23
2023-04-08T02:49:35.134Z,43.41
2023-04-08T02:52:02.129Z,43.10
2023-04-08T02:54:29.226Z,43.37
2023-04-08T02:56:56.361Z,43.42
2023-04-08T02:59:23.576Z,43.25
2023-04-08T03:01:51.505Z,43.43
2023-04-08T03:04:18.454Z,43.50
2023-04-08T03:06:45.543Z,43.50
2023-04-08T03:09:12.669Z,43.47
2023-04-08T03:11:39.585Z,43.67
2023-04-08T03:14:06.506Z,43.54
2023-04-08T03:16:33.711Z,43.54
2023-04-08T03:19:01.079Z,43.63
2023-04-08T03:21:28.081Z,43.60
2023-04-08T03:23:55.158Z,43.63
2023-04-08T03:26:22.161Z,43.69
2023-04-08T03:28:49.303Z,43.75
2023-04-08T03:31:16.663Z,43.77
2023-04-08T03:33:43.815Z,43.96
2023-04-08T03:36:11.029Z,43.79
2023-04-08T03:38:38.023Z,43.71
2023-04-08T03:41:05.012Z,43.66
2023-04-08T03:43:33.064Z,43.68
2023-04-08T03:46:00.043Z,43.97
2023-04-08T03:48:28.165Z,43.69
2023-04-08T03:50:55.140Z,43.63
2023-04-08T03:53:22.551Z,43.90
2023-04-08T03:55:51.314Z,43.68
2023-04-08T03:58:18.492Z,43.67
2023-04-08T04:00:45.715Z,43.81
2023-04-08T04:03:13.440Z,43.42
2023-04-08T04:05:40.980Z,43.51
2023-04-08T04:08:09.488Z,43.51
2023-04-08T04:10:36.389Z,43.51
2023-04-08T04:13:03.641Z,43.36
2023-04-08T04:15:30.819Z,43.33
2023-04-08T04:17:57.961Z,43.58
2023-04-08T04:20:26.149Z,43.49
2023-04-08T04:22:53.117Z,43.18
2023-04-08T04:25:20.303Z,43.14
2023-04-08T04:27:49.217Z,43.49
2023-04-08T04:30:19.679Z,43.13
2023-04-08T04:32:46.735Z,43.21
2023-04-08T04:35:13.825Z,43.29
2023-04-08T04:37:40.900Z,43.29
2023-04-08T04:40:08.342Z,42.55
2023-04-08T04:42:35.621Z,43.14
2023-04-08T04:45:02.902Z,42.58
2023-04-08T04:47:32.799Z,43.03
2023-04-08T04:49:59.974Z,43.07
2023-04-08T04:52:27.201Z,42.48
2023-04-08T04:54:54.382Z,42.66
2023-04-08T04:57:21.623Z,42.89
2023-04-08T04:59:48.529Z,42.98
2023-04-08T05:02:15.924Z,42.87
2023-04-08T05:04:42.975Z,42.72
2023-04-08T05:07:10.048Z,42.53
2023-04-08T05:09:37.010Z,42.86
2023-04-08T05:12:04.253Z,42.49
2023-04-08T05:14:31.645Z,42.83
2023-04-08T05:16:58.692Z,42.49
2023-04-08T05:19:25.648Z,42.20
2023-04-08T05:21:52.660Z,42.82
2023-04-08T05:24:19.644Z,42.18
2023-04-08T05:26:52.435Z,42.20
2023-04-08T05:29:21.833Z,42.07
2023-04-08T05:31:48.898Z,41.95
2023-04-08T05:34:19.468Z,42.31
2023-04-08T05:36:46.391Z,41.99
2023-04-08T05:39:13.659Z,42.33
2023-04-08T05:41:41.044Z,41.63
2023-04-08T05:44:11.187Z,41.75
2023-04-08T05:46:38.910Z,41.61
2023-04-08T05:49:08.079Z,41.73
2023-04-08T05:51:35.056Z,41.30
2023-04-08T05:54:01.978Z,41.51
2023-04-08T05:56:29.229Z,41.33
2023-04-08T05:58:56.300Z,41.07
2023-04-08T06:01:26.404Z,41.35
2023-04-08T06:03:56.147Z,41.12
2023-04-08T06:06:23.927Z,41.02
2023-04-08T06:08:51.077Z,41.00
2023-04-08T06:11:18.545Z,41.05
2023-04-08T06:13:45.686Z,41.03
2023-04-08T06:16:21.230Z,40.50
2023-04-08T06:18:49.371Z,40.86
2023-04-08T06:21:19.357Z,40.88
2023-04-08T06:23:46.562Z,40.85
2023-04-08T06:26:40.689Z,40.65
2023-04-08T06:29:03.965Z,40.88
2023-04-08T06:31:31.557Z,40.69
2023-04-08T06:33:58.849Z,40.67
2023-04-08T06:36:39.643Z,40.19
2023-04-08T06:39:12.846Z,40.78
2023-04-08T06:41:40.295Z,40.63
2023-04-08T06:44:23.792Z,40.31
2023-04-08T06:46:53.547Z,40.50
2023-04-08T06:49:20.780Z,40.32
2023-04-08T06:52:20.599Z,40.33
2023-04-08T06:54:57.328Z,40.08
2023-04-08T06:57:26.033Z,39.89
2023-04-08T06:59:56.631Z,39.75
2023-04-08T07:02:24.476Z,40.01
2023-04-08T07:04:52.078Z,40.01
2023-04-08T07:07:19.167Z,39.81
2023-04-08T07:09:46.824Z,39.29
2023-04-08T07:12:19.112Z,39.28
2023-04-08T07:14:46.800Z,39.65
2023-04-08T07:17:13.818Z,39.63
2023-04-08T07:19:41.243Z,39.29
2023-04-08T07:22:08.196Z,39.11
2023-04-08T07:24:35.213Z,39.34
2023-04-08T07:27:02.284Z,39.18
2023-04-08T07:29:29.407Z,39.07
2023-04-08T07:31:56.298Z,39.41
2023-04-08T07:34:23.478Z,39.10
2023-04-08T07:36:50.764Z,38.61
2023-04-08T07:39:17.821Z,38.92
2023-04-08T07:41:44.992Z,38.93
2023-04-08T07:44:11.993Z,38.66
2023-04-08T07:46:39.215Z,38.72
2023-04-08T07:49:07.247Z,38.37
2023-04-08T07:51:34.884Z,38.54
2023-04-08T07:54:02.134Z,38.74
2023-04-08T07:56:29.516Z,38.44
2023-04-08T07:58:56.799Z,38.41
2023-04-08T08:01:24.557Z,38.10
2023-04-08T08:03:53.177Z,38.39
2023-04-08T08:06:21.052Z,37.54
2023-04-08T08:08:48.377Z,37.19
2023-04-08T08:11:15.578Z,37.21
2023-04-08T08:13:42.936Z,37.60
2023-04-08T08:16:11.991Z,36.85
2023-04-08T08:18:40.480Z,37.41
2023-04-08T08:21:08.639Z,37.00
2023-04-08T08:23:35.911Z,37.12
2023-04-08T08:26:12.053Z,36.64
2023-04-08T08:28:40.102Z,36.47
2023-04-08T08:31:07.640Z,36.43
2023-04-08T08:33:34.805Z,36.43
2023-04-08T08:36:02.170Z,36.77
2023-04-08T08:38:29.319Z,36.71
2023-04-08T08:40:58.445Z,36.30
2023-04-08T08:43:26.434Z,36.27
2023-04-08T08:45:54.156Z,36.53
2023-04-08T08:48:21.418Z,35.96
2023-04-08T08:50:48.521Z,36.46
2023-04-08T08:53:15.670Z,36.60
2023-04-08T08:58:13.289Z,36.14
2023-04-08T09:00:45.245Z,36.02
2023-04-08T09:03:32.792Z,35.80
2023-04-08T09:06:01.955Z,35.50
2023-04-08T09:08:37.117Z,35.50
2023-04-08T09:11:18.322Z,35.30
2023-04-08T09:13:46.730Z,34.98
2023-04-08T09:16:18.141Z,35.05
2023-04-08T09:18:48.795Z,35.35
2023-04-08T09:21:17.818Z,35.41
2023-04-08T09:23:46.050Z,34.57
2023-04-08T09:26:22.167Z,34.37
2023-04-08T09:29:24.220Z,34.29
2023-04-08T09:31:57.945Z,34.60
2023-04-08T09:34:26.712Z,34.53
2023-04-08T09:36:54.986Z,34.23
2023-04-08T09:39:23.051Z,34.11
2023-04-08T09:41:52.026Z,34.37
2023-04-08T09:44:23.734Z,33.91
2023-04-08T09:46:50.706Z,34.03
2023-04-08T09:49:29.592Z,33.66
2023-04-08T09:52:14.032Z,33.77
2023-04-08T09:55:05.914Z,34.11
2023-04-08T09:57:51.512Z,34.15
2023-04-08T10:00:19.312Z,34.04
2023-04-08T10:03:34.303Z,33.79
2023-04-08T10:06:03.557Z,33.79
2023-04-08T10:08:33.125Z,33.71
2023-04-08T10:11:00.177Z,33.60
2023-04-08T10:13:28.589Z,33.21
2023-04-08T10:16:26.033Z,32.99
2023-04-08T10:18:56.990Z,33.44
2023-04-08T10:21:36.094Z,32.97
2023-04-08T10:24:06.525Z,33.15
2023-04-08T10:26:44.298Z,33.05
2023-04-08T10:29:29.535Z,32.89
2023-04-08T10:31:58.047Z,33.17
2023-04-08T10:34:27.433Z,33.21
2023-04-08T10:36:57.060Z,33.08
2023-04-08T10:39:25.824Z,33.09
2023-04-08T10:41:52.998Z,32.81
2023-04-08T10:44:25.130Z,32.70
2023-04-08T10:46:53.361Z,32.87
2023-04-08T10:49:20.531Z,32.88
2023-04-08T10:51:48.048Z,32.75
2023-04-08T10:54:17.095Z,32.57
2023-04-08T10:56:50.144Z,32.54
2023-04-08T10:59:27.189Z,32.36
2023-04-08T11:01:55.750Z,32.54
2023-04-08T11:04:25.983Z,32.50
2023-04-08T11:06:53.761Z,32.44
2023-04-08T11:09:20.993Z,32.37
2023-04-08T11:11:48.124Z,32.26
2023-04-08T11:14:17.247Z,32.22
2023-04-08T11:16:45.271Z,32.35
2023-04-08T11:19:13.969Z,32.02
2023-04-08T11:21:41.327Z,32.02
2023-04-08T11:24:12.360Z,31.72
2023-04-08T11:26:40.708Z,31.94
2023-04-08T11:29:14.133Z,31.45
2023-04-08T11:31:44.150Z,31.59
2023-04-08T11:34:11.684Z,31.65
2023-04-08T11:36:41.921Z,31.10
2023-04-08T11:39:12.430Z,31.08
2023-04-08T11:41:40.747Z,30.99
2023-04-08T11:44:08.734Z,30.93
2023-04-08T11:46:36.440Z,31.21
2023-04-08T11:49:08.159Z,30.70
2023-04-08T11:51:36.330Z,31.08
2023-04-08T11:54:07.544Z,30.88
2023-04-08T11:56:47.125Z,30.94
2023-04-08T11:59:14.126Z,31.41
2023-04-08T12:01:41.255Z,31.25
2023-04-08T12:04:10.580Z,30.96
2023-04-08T12:06:37.850Z,30.77
2023-04-08T12:09:04.940Z,30.83
2023-04-08T12:11:32.164Z,30.85
2023-04-08T12:13:59.126Z,30.25
2023-04-08T12:16:26.309Z,30.39
2023-04-08T12:18:53.433Z,29.98
2023-04-08T12:21:20.494Z,29.82
2023-04-08T12:23:47.610Z,29.58
2023-04-08T12:26:14.810Z,29.33
2023-04-08T12:28:41.878Z,29.12
2023-04-08T12:31:08.833Z,28.61
2023-04-08T12:33:35.948Z,28.09
2023-04-08T12:36:03.020Z,27.75
2023-04-08T12:38:29.960Z,27.10
2023-04-08T12:40:56.820Z,26.54
2023-04-08T12:43:23.908Z,26.34
2023-04-08T12:45:51.419Z,25.84
2023-04-08T12:48:18.508Z,25.22
2023-04-08T12:50:45.653Z,24.75
2023-04-08T12:53:12.622Z,24.52
2023-04-08T12:55:39.740Z,24.33
2023-04-08T12:58:06.825Z,24.26
2023-04-08T13:00:33.900Z,23.82
2023-04-08T13:03:01.098Z,23.82
2023-04-08T13:05:41.993Z,23.43
2023-04-08T13:08:11.974Z,23.45
2023-04-08T13:10:38.936Z,23.23
2023-04-08T13:13:05.799Z,23.23
2023-04-08T13:15:32.842Z,23.17
2023-04-08T13:17:59.953Z,23.27
2023-04-08T13:20:27.013Z,23.25
2023-04-08T13:22:54.259Z,23.41
2023-04-08T13:25:21.655Z,23.26
2023-04-08T13:27:48.602Z,23.06
2023-04-08T13:30:15.682Z,23.05
2023-04-08T13:32:42.774Z,23.20
2023-04-08T13:35:09.927Z,23.23
2023-04-08T13:37:37.296Z,23.09
2023-04-08T13:40:04.793Z,22.91
2023-04-08T13:42:32.838Z,22.71
2023-04-08T13:45:00.233Z,22.43
2023-04-08T13:47:29.877Z,22.35
2023-04-08T13:49:56.855Z,22.13
2023-04-08T13:52:23.761Z,21.91
2023-04-08T13:54:50.930Z,21.87
2023-04-08T13:57:17.788Z,21.78
2023-04-08T13:59:44.963Z,21.81
2023-04-08T14:02:13.018Z,22.16
2023-04-08T14:04:40.406Z,21.89
2023-04-08T14:07:07.496Z,22.11
2023-04-08T14:09:34.436Z,21.89
2023-04-08T14:12:01.906Z,21.96
2023-04-08T14:14:28.898Z,22.00
2023-04-08T14:16:55.957Z,21.81
2023-04-08T14:19:23.116Z,21.78
2023-04-08T14:21:50.172Z,21.88
2023-04-08T14:24:17.166Z,22.17
2023-04-08T14:26:44.280Z,22.60
2023-04-08T14:29:11.910Z,22.71
2023-04-08T14:31:38.865Z,22.76
2023-04-08T14:34:05.904Z,22.84
2023-04-08T14:36:33.017Z,23.03
2023-04-08T14:39:00.305Z,23.32
2023-04-08T14:41:27.464Z,23.74
2023-04-08T14:43:54.525Z,23.75
2023-04-08T14:46:21.909Z,23.70
2023-04-08T14:48:49.222Z,23.96
2023-04-08T14:51:16.363Z,24.07
2023-04-08T14:53:43.366Z,24.53
2023-04-08T14:56:10.528Z,24.66
2023-04-08T14:58:37.456Z,24.85
2023-04-08T15:01:04.691Z,25.19
2023-04-08T15:03:31.853Z,25.61
2023-04-08T15:05:59.852Z,25.62
2023-04-08T15:08:27.021Z,25.56
2023-04-08T15:10:54.113Z,25.60
2023-04-08T15:13:21.080Z,25.75
2023-04-08T15:15:48.175Z,26.07
2023-04-08T15:18:15.155Z,26.27
2023-04-08T15:20:42.587Z,26.51
2023-04-08T15:23:09.463Z,26.78
2023-04-08T15:25:36.469Z,26.81
2023-04-08T15:28:03.627Z,26.86
2023-04-08T15:30:35.531Z,27.05
2023-04-08T15:33:05.894Z,27.17
2023-04-08T15:35:33.660Z,27.21
2023-04-08T15:38:01.272Z,27.31
2023-04-08T15:40:28.361Z,27.70
2023-04-08T15:42:56.094Z,28.05
2023-04-08T15:45:23.071Z,28.27
2023-04-08T15:47:50.033Z,28.35
2023-04-08T15:50:17.702Z,28.15
2023-04-08T15:52:44.977Z,28.05
2023-04-08T15:55:13.270Z,27.89
2023-04-08T15:57:40.274Z,27.88
2023-04-08T16:00:11.229Z,28.26
2023-04-08T16:02:41.022Z,28.13
2023-04-08T16:05:09.243Z,28.52
2023-04-08T16:07:36.376Z,28.96
2023-04-08T16:10:03.402Z,29.19
2023-04-08T16:12:30.579Z,29.26
2023-04-08T16:14:57.922Z,29.51
2023-04-08T16:17:24.972Z,29.66
2023-04-08T16:19:52.431Z,29.97
2023-04-08T16:22:19.675Z,30.20
2023-04-08T16:24:46.630Z,30.37
2023-04-08T16:27:13.512Z,30.67
2023-04-08T16:29:40.674Z,30.70
2023-04-08T16:32:09.042Z,31.20
2023-04-08T16:34:36.293Z,31.10
2023-04-08T16:37:03.322Z,31.26
2023-04-08T16:39:30.475Z,31.68
2023-04-08T16:41:57.423Z,31.75
2023-04-08T16:44:24.526Z,31.92
2023-04-08T16:46:51.560Z,31.79
2023-04-08T16:49:18.561Z,32.30
2023-04-08T16:51:45.634Z,32.20
2023-04-08T16:54:12.677Z,32.42
2023-04-08T16:56:44.474Z,32.75
2023-04-08T16:59:12.578Z,33.38
2023-04-08T17:01:39.725Z,33.58
2023-04-08T17:04:06.969Z,33.63
2023-04-08T17:06:37.794Z,33.49
2023-04-08T17:09:04.825Z,33.60
2023-04-08T17:11:31.965Z,33.39
2023-04-08T17:13:59.589Z,34.13
2023-04-08T17:16:26.584Z,34.20
2023-04-08T17:18:53.636Z,34.22
2023-04-08T17:21:21.290Z,34.43
2023-04-08T17:23:48.530Z,34.61
2023-04-08T17:26:15.570Z,34.58
2023-04-08T17:28:43.552Z,35.16
2023-04-08T17:31:11.172Z,34.96
2023-04-08T17:33:38.284Z,35.17
2023-04-08T17:36:05.710Z,35.21
2023-04-08T17:38:33.127Z,35.44
2023-04-08T17:41:00.658Z,36.01
2023-04-08T17:43:27.609Z,36.24
2023-04-08T17:48:26.523Z,35.82
2023-04-08T17:51:06.808Z,37.04
2023-04-08T17:53:34.396Z,36.65
2023-04-08T17:56:01.487Z,36.19
2023-04-08T17:58:28.467Z,36.81
2023-04-08T18:00:55.504Z,36.39
2023-04-08T18:03:22.574Z,37.00
2023-04-08T18:05:49.706Z,36.74
2023-04-08T18:08:16.637Z,37.10
2023-04-08T18:10:45.139Z,37.06
2023-04-08T18:13:13.342Z,37.40
2023-04-08T18:15:40.444Z,37.15
2023-04-08T18:18:07.503Z,37.72
2023-04-08T18:20:37.792Z,38.07
2023-04-08T18:23:05.028Z,37.76
2023-04-08T18:25:32.636Z,38.05
2023-04-08T18:27:59.768Z,37.52
2023-04-08T18:30:27.218Z,37.88
2023-04-08T18:32:54.194Z,38.45
2023-04-08T18:35:21.285Z,38.58
2023-04-08T18:37:48.239Z,38.33
2023-04-08T18:40:15.608Z,38.19
2023-04-08T18:42:42.489Z,38.90
2023-04-08T18:45:09.875Z,38.85
2023-04-08T18:47:37.726Z,38.71
2023-04-08T18:50:06.680Z,38.97
2023-04-08T18:52:33.902Z,39.27
2023-04-08T18:55:01.033Z,39.57
2023-04-08T18:57:28.016Z,39.26
2023-04-08T18:59:55.011Z,39.57
2023-04-08T19:02:22.845Z,39.61
2023-04-08T19:04:50.095Z,39.75
2023-04-08T19:07:17.901Z,39.92
2023-04-08T19:09:44.866Z,40.07
2023-04-08T19:12:11.724Z,39.82
2023-04-08T19:14:39.657Z,40.20
2023-04-08T19:17:07.895Z,40.30
2023-04-08T19:19:34.829Z,40.58
2023-04-08T19:22:06.747Z,40.34
2023-04-08T19:24:34.380Z,40.39
2023-04-08T19:27:01.432Z,40.58
2023-04-08T19:29:31.171Z,40.54
2023-04-08T19:31:59.515Z,40.93
2023-04-08T19:34:26.990Z,40.85
2023-04-08T19:36:54.245Z,40.92
2023-04-08T19:39:21.267Z,40.88
2023-04-08T19:41:50.534Z,41.01
2023-04-08T19:44:17.441Z,41.15
2023-04-08T19:46:44.571Z,41.07
2023-04-08T19:49:12.075Z,41.33
2023-04-08T19:51:39.003Z,41.29
2023-04-08T19:54:05.898Z,41.11
2023-04-08T19:56:34.155Z,41.31
2023-04-08T19:59:02.066Z,41.41
2023-04-08T20:01:29.523Z,41.44
2023-04-08T20:03:56.596Z,41.43
2023-04-08T20:06:23.556Z,41.54
2023-04-08T20:08:52.897Z,41.71
2023-04-08T20:11:20.590Z,41.66
2023-04-08T20:13:51.588Z,41.70
2023-04-08T20:16:18.633Z,41.42
2023-04-08T20:18:45.605Z,42.07
2023-04-08T20:21:14.086Z,41.90
2023-04-08T20:23:44.464Z,41.75
2023-04-08T20:26:12.903Z,41.98
2023-04-08T20:28:40.938Z,42.00
2023-04-08T20:31:09.314Z,42.04
2023-04-08T20:33:38.351Z,42.09
2023-04-08T20:36:05.620Z,42.33
2023-04-08T20:38:35.438Z,42.54
2023-04-08T20:41:02.712Z,42.49
2023-04-08T20:43:29.679Z,42.88
2023-04-08T20:45:56.622Z,42.59
2023-04-08T20:48:23.815Z,42.89
2023-04-08T20:50:51.159Z,43.11
2023-04-08T20:53:19.615Z,42.98
2023-04-08T20:55:46.701Z,42.76
2023-04-08T20:58:13.705Z,43.06
2023-04-08T21:00:40.565Z,43.18
2023-04-08T21:03:07.751Z,43.26
2023-04-08T21:05:38.117Z,43.78
2023-04-08T21:08:06.184Z,43.67
2023-04-08T21:10:33.239Z,43.35
2023-04-08T21:13:01.220Z,43.63
2023-04-08T21:15:28.263Z,43.80
2023-04-08T21:17:55.333Z,43.89
2023-04-08T21:20:22.308Z,44.16
2023-04-08T21:22:49.302Z,44.03
2023-04-08T21:25:18.082Z,44.32
2023-04-08T21:27:45.011Z,44.10
2023-04-08T21:30:12.236Z,44.40
2023-04-08T21:32:39.127Z,44.13
2023-04-08T21:35:06.386Z,44.66
2023-04-08T21:37:34.658Z,44.63
2023-04-08T21:40:01.621Z,44.65
2023-04-08T21:42:30.419Z,44.74
2023-04-08T21:44:57.675Z,44.83
2023-04-08T21:47:24.588Z,44.56
2023-04-08T21:49:51.689Z,44.73
2023-04-08T21:52:18.602Z,44.63
2023-04-08T21:54:50.033Z,45.07
2023-04-08T21:57:17.057Z,45.11
2023-04-08T21:59:44.223Z,44.95
2023-04-08T22:02:11.823Z,45.28
2023-04-08T22:04:38.997Z,45.52
2023-04-08T22:07:06.405Z,45.21
2023-04-08T22:09:33.290Z,45.14
2023-04-08T22:12:01.655Z,45.32
2023-04-08T22:14:28.548Z,45.81
2023-04-08T22:16:55.542Z,45.64
2023-04-08T22:19:22.490Z,45.99
2023-04-08T22:21:51.257Z,45.72
2023-04-08T22:24:21.456Z,46.04
2023-04-08T22:26:48.500Z,46.01
2023-04-08T22:29:15.736Z,46.21
2023-04-08T22:31:42.803Z,46.07
2023-04-08T22:34:09.891Z,46.24
2023-04-08T22:36:36.880Z,46.10
2023-04-08T22:39:04.041Z,46.04
2023-04-08T22:41:31.348Z,46.35
2023-04-08T22:43:58.348Z,46.54
2023-04-08T22:46:25.636Z,46.46
2023-04-08T22:48:52.823Z,46.70
2023-04-08T22:51:20.055Z,46.70
2023-04-08T22:53:47.065Z,46.41
2023-04-08T22:56:14.325Z,46.73
2023-04-08T22:58:41.368Z,46.73
2023-04-08T23:01:14.224Z,46.69
2023-04-08T23:03:41.945Z,46.60
2023-04-08T23:06:09.442Z,46.60
2023-04-08T23:08:36.466Z,46.81
2023-04-08T23:11:03.378Z,46.50
2023-04-08T23:13:30.598Z,46.74
2023-04-08T23:15:57.753Z,46.50
2023-04-08T23:18:25.531Z,46.74
2023-04-08T23:20:56.815Z,47.20
2023-04-08T23:23:24.905Z,47.24
2023-04-08T23:25:54.926Z,46.79
2023-04-08T23:28:22.930Z,47.43
2023-04-08T23:30:49.907Z,47.08
2023-04-08T23:33:16.974Z,47.51
2023-04-08T23:35:44.223Z,47.28
2023-04-08T23:38:11.189Z,47.71
2023-04-08T23:40:38.235Z,47.84
2023-04-08T23:43:05.469Z,47.58
2023-04-08T23:45:32.506Z,47.55
2023-04-08T23:47:59.504Z,47.82
2023-04-08T23:50:26.444Z,47.73
2023-04-08T23:52:53.373Z,48.12
2023-04-08T23:55:20.881Z,47.71
2023-04-08T23:57:49.379Z,47.64
